sensor_id;sensor_type;location;lat;lon;timestamp;P1;durP1;ratioP1;P2;durP2;ratioP2
58354;SDS011;44160;49.080;19.302;2023-10-13T00:01:01;17.27;;;10.25;;
58354;SDS011;44160;49.080;19.302;2023-10-13T00:03:30;15.18;;;9.45;;
58354;SDS011;44160;49.080;19.302;2023-10-13T00:06:00;12.45;;;7.60;;
58354;SDS011;44160;49.080;19.302;2023-10-13T00:10:54;13.20;;;8.05;;
58354;SDS011;44160;49.080;19.302;2023-10-13T00:13:25;13.70;;;7.93;;
58354;SDS011;44160;49.080;19.302;2023-10-13T00:15:51;11.05;;;7.22;;
58354;SDS011;44160;49.080;19.302;2023-10-13T00:18:28;9.02;;;4.53;;
58354;SDS011;44160;49.080;19.302;2023-10-13T00:21:07;8.75;;;5.78;;
58354;SDS011;44160;49.080;19.302;2023-10-13T00:23:41;8.77;;;5.38;;
58354;SDS011;44160;49.080;19.302;2023-10-13T00:26:20;10.32;;;6.00;;
58354;SDS011;44160;49.080;19.302;2023-10-13T00:28:50;9.50;;;5.55;;
58354;SDS011;44160;49.080;19.302;2023-10-13T00:31:24;12.27;;;5.85;;
58354;SDS011;44160;49.080;19.302;2023-10-13T00:33:54;8.82;;;5.15;;
58354;SDS011;44160;49.080;19.302;2023-10-13T00:36:26;12.52;;;5.20;;
58354;SDS011;44160;49.080;19.302;2023-10-13T00:38:52;10.27;;;5.10;;
58354;SDS011;44160;49.080;19.302;2023-10-13T00:41:21;7.57;;;5.40;;
58354;SDS011;44160;49.080;19.302;2023-10-13T00:44:07;7.63;;;5.22;;
58354;SDS011;44160;49.080;19.302;2023-10-13T00:46:34;10.75;;;5.10;;
58354;SDS011;44160;49.080;19.302;2023-10-13T00:49:01;11.63;;;6.07;;
58354;SDS011;44160;49.080;19.302;2023-10-13T00:51:27;10.05;;;4.47;;
58354;SDS011;44160;49.080;19.302;2023-10-13T00:54:06;7.20;;;4.75;;
58354;SDS011;44160;49.080;19.302;2023-10-13T00:56:41;12.20;;;4.43;;
58354;SDS011;44160;49.080;19.302;2023-10-13T00:59:34;8.82;;;4.50;;
58354;SDS011;44160;49.080;19.302;2023-10-13T01:02:01;11.70;;;4.43;;
58354;SDS011;44160;49.080;19.302;2023-10-13T01:04:47;8.00;;;3.80;;
58354;SDS011;44160;49.080;19.302;2023-10-13T01:07:14;11.13;;;4.50;;
58354;SDS011;44160;49.080;19.302;2023-10-13T01:09:47;10.13;;;4.32;;
58354;SDS011;44160;49.080;19.302;2023-10-13T01:12:13;10.88;;;4.55;;
58354;SDS011;44160;49.080;19.302;2023-10-13T01:14:39;8.45;;;4.57;;
58354;SDS011;44160;49.080;19.302;2023-10-13T01:17:06;8.63;;;5.00;;
58354;SDS011;44160;49.080;19.302;2023-10-13T01:19:35;10.15;;;5.13;;
58354;SDS011;44160;49.080;19.302;2023-10-13T01:22:08;8.23;;;4.40;;
58354;SDS011;44160;49.080;19.302;2023-10-13T01:24:34;8.02;;;4.80;;
58354;SDS011;44160;49.080;19.302;2023-10-13T01:27:01;6.13;;;4.15;;
58354;SDS011;44160;49.080;19.302;2023-10-13T01:29:46;9.35;;;4.13;;
58354;SDS011;44160;49.080;19.302;2023-10-13T01:32:31;10.98;;;4.70;;
58354;SDS011;44160;49.080;19.302;2023-10-13T01:34:57;10.43;;;4.72;;
58354;SDS011;44160;49.080;19.302;2023-10-13T01:37:30;11.98;;;4.25;;
58354;SDS011;44160;49.080;19.302;2023-10-13T01:39:56;8.63;;;4.55;;
58354;SDS011;44160;49.080;19.302;2023-10-13T01:42:22;8.38;;;3.85;;
58354;SDS011;44160;49.080;19.302;2023-10-13T01:44:50;8.13;;;4.35;;
58354;SDS011;44160;49.080;19.302;2023-10-13T01:47:16;10.27;;;4.32;;
58354;SDS011;44160;49.080;19.302;2023-10-13T01:49:42;9.40;;;4.55;;
58354;SDS011;44160;49.080;19.302;2023-10-13T01:52:12;9.05;;;4.82;;
58354;SDS011;44160;49.080;19.302;2023-10-13T01:54:40;11.18;;;4.82;;
58354;SDS011;44160;49.080;19.302;2023-10-13T01:57:09;12.20;;;5.95;;
58354;SDS011;44160;49.080;19.302;2023-10-13T01:59:40;11.63;;;6.05;;
58354;SDS011;44160;49.080;19.302;2023-10-13T02:02:09;15.20;;;7.50;;
58354;SDS011;44160;49.080;19.302;2023-10-13T02:04:38;12.23;;;7.65;;
58354;SDS011;44160;49.080;19.302;2023-10-13T02:07:14;12.18;;;7.93;;
58354;SDS011;44160;49.080;19.302;2023-10-13T02:09:40;14.10;;;8.38;;
58354;SDS011;44160;49.080;19.302;2023-10-13T02:12:08;11.20;;;7.20;;
58354;SDS011;44160;49.080;19.302;2023-10-13T02:14:34;12.50;;;7.07;;
58354;SDS011;44160;49.080;19.302;2023-10-13T02:17:03;11.98;;;6.93;;
58354;SDS011;44160;49.080;19.302;2023-10-13T02:19:38;13.07;;;7.20;;
58354;SDS011;44160;49.080;19.302;2023-10-13T02:22:08;13.87;;;7.57;;
58354;SDS011;44160;49.080;19.302;2023-10-13T02:24:35;11.02;;;7.28;;
58354;SDS011;44160;49.080;19.302;2023-10-13T02:27:05;12.20;;;6.38;;
58354;SDS011;44160;49.080;19.302;2023-10-13T02:29:38;13.75;;;6.68;;
58354;SDS011;44160;49.080;19.302;2023-10-13T02:32:05;12.73;;;5.88;;
58354;SDS011;44160;49.080;19.302;2023-10-13T02:34:37;13.85;;;6.60;;
58354;SDS011;44160;49.080;19.302;2023-10-13T02:37:09;9.80;;;6.20;;
58354;SDS011;44160;49.080;19.302;2023-10-13T02:39:35;9.65;;;6.40;;
58354;SDS011;44160;49.080;19.302;2023-10-13T02:42:06;11.55;;;6.50;;
58354;SDS011;44160;49.080;19.302;2023-10-13T02:44:35;15.30;;;6.68;;
58354;SDS011;44160;49.080;19.302;2023-10-13T02:47:02;11.13;;;6.05;;
58354;SDS011;44160;49.080;19.302;2023-10-13T02:49:38;10.52;;;5.43;;
58354;SDS011;44160;49.080;19.302;2023-10-13T02:52:08;14.13;;;6.47;;
58354;SDS011;44160;49.080;19.302;2023-10-13T02:54:35;12.60;;;5.97;;
58354;SDS011;44160;49.080;19.302;2023-10-13T02:57:18;9.23;;;5.50;;
58354;SDS011;44160;49.080;19.302;2023-10-13T02:59:44;11.13;;;5.80;;
58354;SDS011;44160;49.080;19.302;2023-10-13T03:02:21;11.07;;;6.25;;
58354;SDS011;44160;49.080;19.302;2023-10-13T03:04:55;13.35;;;6.40;;
58354;SDS011;44160;49.080;19.302;2023-10-13T03:07:27;10.57;;;6.03;;
58354;SDS011;44160;49.080;19.302;2023-10-13T03:09:57;11.38;;;5.38;;
58354;SDS011;44160;49.080;19.302;2023-10-13T03:12:25;13.45;;;6.53;;
58354;SDS011;44160;49.080;19.302;2023-10-13T03:14:58;11.77;;;6.57;;
58354;SDS011;44160;49.080;19.302;2023-10-13T03:17:44;10.23;;;6.03;;
58354;SDS011;44160;49.080;19.302;2023-10-13T03:20:11;12.15;;;5.47;;
58354;SDS011;44160;49.080;19.302;2023-10-13T03:22:39;11.55;;;6.45;;
58354;SDS011;44160;49.080;19.302;2023-10-13T03:25:05;11.00;;;6.22;;
58354;SDS011;44160;49.080;19.302;2023-10-13T03:27:33;8.63;;;6.00;;
58354;SDS011;44160;49.080;19.302;2023-10-13T03:30:25;12.95;;;6.07;;
58354;SDS011;44160;49.080;19.302;2023-10-13T03:33:04;7.63;;;5.40;;
58354;SDS011;44160;49.080;19.302;2023-10-13T03:35:33;9.23;;;5.15;;
58354;SDS011;44160;49.080;19.302;2023-10-13T03:38:03;8.95;;;5.45;;
58354;SDS011;44160;49.080;19.302;2023-10-13T03:40:29;8.50;;;5.68;;
58354;SDS011;44160;49.080;19.302;2023-10-13T03:42:56;7.43;;;5.15;;
58354;SDS011;44160;49.080;19.302;2023-10-13T03:45:36;10.23;;;6.00;;
58354;SDS011;44160;49.080;19.302;2023-10-13T03:48:07;9.32;;;5.75;;
58354;SDS011;44160;49.080;19.302;2023-10-13T03:50:40;6.50;;;4.95;;
58354;SDS011;44160;49.080;19.302;2023-10-13T03:53:39;8.93;;;5.95;;
58354;SDS011;44160;49.080;19.302;2023-10-13T03:56:22;13.57;;;6.40;;
58354;SDS011;44160;49.080;19.302;2023-10-13T03:58:51;11.88;;;6.57;;
58354;SDS011;44160;49.080;19.302;2023-10-13T04:01:19;8.90;;;6.47;;
58354;SDS011;44160;49.080;19.302;2023-10-13T04:03:56;11.40;;;6.53;;
58354;SDS011;44160;49.080;19.302;2023-10-13T04:06:25;14.07;;;6.50;;
58354;SDS011;44160;49.080;19.302;2023-10-13T04:09:12;11.77;;;7.35;;
58354;SDS011;44160;49.080;19.302;2023-10-13T04:11:54;12.18;;;7.03;;
58354;SDS011;44160;49.080;19.302;2023-10-13T04:14:26;13.23;;;6.82;;
58354;SDS011;44160;49.080;19.302;2023-10-13T04:17:11;13.82;;;6.05;;
58354;SDS011;44160;49.080;19.302;2023-10-13T04:19:50;12.77;;;6.20;;
58354;SDS011;44160;49.080;19.302;2023-10-13T04:25:16;10.38;;;6.20;;
58354;SDS011;44160;49.080;19.302;2023-10-13T04:28:02;10.27;;;6.90;;
58354;SDS011;44160;49.080;19.302;2023-10-13T04:36:15;10.45;;;5.93;;
58354;SDS011;44160;49.080;19.302;2023-10-13T04:38:51;12.38;;;6.72;;
58354;SDS011;44160;49.080;19.302;2023-10-13T04:44:14;10.05;;;6.47;;
58354;SDS011;44160;49.080;19.302;2023-10-13T04:47:00;11.73;;;7.30;;
58354;SDS011;44160;49.080;19.302;2023-10-13T04:49:31;13.40;;;7.45;;
58354;SDS011;44160;49.080;19.302;2023-10-13T04:52:05;9.52;;;6.63;;
58354;SDS011;44160;49.080;19.302;2023-10-13T04:54:43;12.32;;;7.32;;
58354;SDS011;44160;49.080;19.302;2023-10-13T04:57:19;14.70;;;7.55;;
58354;SDS011;44160;49.080;19.302;2023-10-13T05:00:12;12.82;;;7.35;;
58354;SDS011;44160;49.080;19.302;2023-10-13T05:02:43;11.27;;;7.65;;
58354;SDS011;44160;49.080;19.302;2023-10-13T05:05:28;11.65;;;8.32;;
58354;SDS011;44160;49.080;19.302;2023-10-13T05:08:13;10.65;;;7.53;;
58354;SDS011;44160;49.080;19.302;2023-10-13T05:11:02;13.50;;;6.97;;
58354;SDS011;44160;49.080;19.302;2023-10-13T05:13:47;13.98;;;7.18;;
58354;SDS011;44160;49.080;19.302;2023-10-13T05:16:35;18.63;;;8.10;;
58354;SDS011;44160;49.080;19.302;2023-10-13T05:19:19;13.15;;;7.85;;
58354;SDS011;44160;49.080;19.302;2023-10-13T05:22:04;16.77;;;9.50;;
58354;SDS011;44160;49.080;19.302;2023-10-13T05:24:50;23.27;;;12.93;;
58354;SDS011;44160;49.080;19.302;2023-10-13T05:27:35;23.73;;;16.13;;
58354;SDS011;44160;49.080;19.302;2023-10-13T05:30:19;20.52;;;14.15;;
58354;SDS011;44160;49.080;19.302;2023-10-13T05:33:04;25.02;;;12.70;;
58354;SDS011;44160;49.080;19.302;2023-10-13T05:35:49;15.50;;;11.70;;
58354;SDS011;44160;49.080;19.302;2023-10-13T05:38:40;27.08;;;13.98;;
58354;SDS011;44160;49.080;19.302;2023-10-13T05:41:25;18.60;;;11.85;;
58354;SDS011;44160;49.080;19.302;2023-10-13T05:44:10;28.33;;;20.30;;
58354;SDS011;44160;49.080;19.302;2023-10-13T05:46:58;19.08;;;11.52;;
58354;SDS011;44160;49.080;19.302;2023-10-13T05:49:44;18.52;;;10.25;;
58354;SDS011;44160;49.080;19.302;2023-10-13T05:52:29;18.88;;;9.80;;
58354;SDS011;44160;49.080;19.302;2023-10-13T05:55:14;17.17;;;11.45;;
58354;SDS011;44160;49.080;19.302;2023-10-13T05:57:59;16.60;;;10.40;;
58354;SDS011;44160;49.080;19.302;2023-10-13T06:00:44;13.10;;;9.73;;
58354;SDS011;44160;49.080;19.302;2023-10-13T06:03:29;16.88;;;10.48;;
58354;SDS011;44160;49.080;19.302;2023-10-13T06:06:14;15.30;;;10.52;;
58354;SDS011;44160;49.080;19.302;2023-10-13T06:08:59;16.02;;;10.15;;
58354;SDS011;44160;49.080;19.302;2023-10-13T06:11:43;14.25;;;9.57;;
58354;SDS011;44160;49.080;19.302;2023-10-13T06:14:28;16.35;;;9.38;;
58354;SDS011;44160;49.080;19.302;2023-10-13T06:17:13;13.02;;;9.30;;
58354;SDS011;44160;49.080;19.302;2023-10-13T06:20:14;14.82;;;9.45;;
58354;SDS011;44160;49.080;19.302;2023-10-13T06:22:59;16.38;;;11.15;;
58354;SDS011;44160;49.080;19.302;2023-10-13T06:25:50;28.98;;;18.25;;
58354;SDS011;44160;49.080;19.302;2023-10-13T06:28:34;13.48;;;9.85;;
58354;SDS011;44160;49.080;19.302;2023-10-13T06:31:07;16.05;;;10.10;;
58354;SDS011;44160;49.080;19.302;2023-10-13T06:33:59;16.85;;;10.70;;
58354;SDS011;44160;49.080;19.302;2023-10-13T06:36:28;18.25;;;10.38;;
58354;SDS011;44160;49.080;19.302;2023-10-13T06:38:57;15.30;;;10.07;;
58354;SDS011;44160;49.080;19.302;2023-10-13T06:41:42;13.98;;;9.88;;
58354;SDS011;44160;49.080;19.302;2023-10-13T06:44:08;16.33;;;10.98;;
58354;SDS011;44160;49.080;19.302;2023-10-13T06:46:40;16.90;;;11.57;;
58354;SDS011;44160;49.080;19.302;2023-10-13T06:49:07;17.17;;;11.85;;
58354;SDS011;44160;49.080;19.302;2023-10-13T06:51:35;16.08;;;11.30;;
58354;SDS011;44160;49.080;19.302;2023-10-13T06:54:05;14.50;;;11.25;;
58354;SDS011;44160;49.080;19.302;2023-10-13T06:56:44;17.65;;;10.70;;
58354;SDS011;44160;49.080;19.302;2023-10-13T06:59:11;14.68;;;10.55;;
58354;SDS011;44160;49.080;19.302;2023-10-13T07:01:39;15.52;;;10.32;;
58354;SDS011;44160;49.080;19.302;2023-10-13T07:04:09;15.93;;;9.68;;
58354;SDS011;44160;49.080;19.302;2023-10-13T07:06:41;13.98;;;10.25;;
58354;SDS011;44160;49.080;19.302;2023-10-13T07:09:13;12.50;;;9.07;;
58354;SDS011;44160;49.080;19.302;2023-10-13T07:11:59;12.32;;;8.10;;
58354;SDS011;44160;49.080;19.302;2023-10-13T07:14:31;16.40;;;7.85;;
58354;SDS011;44160;49.080;19.302;2023-10-13T07:17:04;15.10;;;9.03;;
58354;SDS011;44160;49.080;19.302;2023-10-13T07:19:35;11.65;;;8.23;;
58354;SDS011;44160;49.080;19.302;2023-10-13T07:22:16;13.45;;;8.10;;
58354;SDS011;44160;49.080;19.302;2023-10-13T07:24:46;11.45;;;7.47;;
58354;SDS011;44160;49.080;19.302;2023-10-13T07:27:19;13.25;;;7.85;;
58354;SDS011;44160;49.080;19.302;2023-10-13T07:29:52;13.50;;;7.72;;
58354;SDS011;44160;49.080;19.302;2023-10-13T07:32:38;12.65;;;8.48;;
58354;SDS011;44160;49.080;19.302;2023-10-13T07:35:11;12.07;;;8.43;;
58354;SDS011;44160;49.080;19.302;2023-10-13T07:37:37;17.15;;;8.32;;
58354;SDS011;44160;49.080;19.302;2023-10-13T07:40:07;13.75;;;8.85;;
58354;SDS011;44160;49.080;19.302;2023-10-13T07:42:50;13.52;;;8.43;;
58354;SDS011;44160;49.080;19.302;2023-10-13T07:45:17;17.67;;;10.07;;
58354;SDS011;44160;49.080;19.302;2023-10-13T07:47:47;17.05;;;10.40;;
58354;SDS011;44160;49.080;19.302;2023-10-13T07:50:15;9.38;;;8.10;;
58354;SDS011;44160;49.080;19.302;2023-10-13T07:52:48;14.00;;;8.45;;
58354;SDS011;44160;49.080;19.302;2023-10-13T07:55:26;13.00;;;7.60;;
58354;SDS011;44160;49.080;19.302;2023-10-13T07:57:52;15.13;;;7.55;;
58354;SDS011;44160;49.080;19.302;2023-10-13T08:00:22;13.00;;;9.18;;
58354;SDS011;44160;49.080;19.302;2023-10-13T08:03:03;11.32;;;8.20;;
58354;SDS011;44160;49.080;19.302;2023-10-13T08:05:38;14.32;;;8.98;;
58354;SDS011;44160;49.080;19.302;2023-10-13T08:08:07;14.23;;;8.43;;
58354;SDS011;44160;49.080;19.302;2023-10-13T08:10:40;12.95;;;7.97;;
58354;SDS011;44160;49.080;19.302;2023-10-13T08:13:07;13.68;;;8.30;;
58354;SDS011;44160;49.080;19.302;2023-10-13T08:15:40;13.73;;;8.05;;
58354;SDS011;44160;49.080;19.302;2023-10-13T08:18:12;13.38;;;8.63;;
58354;SDS011;44160;49.080;19.302;2023-10-13T08:20:56;15.73;;;9.10;;
58354;SDS011;44160;49.080;19.302;2023-10-13T08:23:27;13.20;;;8.25;;
58354;SDS011;44160;49.080;19.302;2023-10-13T08:26:10;13.07;;;8.48;;
58354;SDS011;44160;49.080;19.302;2023-10-13T08:28:55;12.98;;;9.10;;
58354;SDS011;44160;49.080;19.302;2023-10-13T08:31:21;17.90;;;9.07;;
58354;SDS011;44160;49.080;19.302;2023-10-13T08:33:48;13.75;;;9.27;;
58354;SDS011;44160;49.080;19.302;2023-10-13T08:36:14;15.02;;;9.20;;
58354;SDS011;44160;49.080;19.302;2023-10-13T08:38:52;17.77;;;7.80;;
58354;SDS011;44160;49.080;19.302;2023-10-13T08:41:20;12.52;;;8.38;;
58354;SDS011;44160;49.080;19.302;2023-10-13T08:43:49;14.02;;;8.20;;
58354;SDS011;44160;49.080;19.302;2023-10-13T08:46:17;13.32;;;8.98;;
58354;SDS011;44160;49.080;19.302;2023-10-13T08:49:10;15.13;;;9.30;;
58354;SDS011;44160;49.080;19.302;2023-10-13T08:51:43;19.52;;;10.35;;
58354;SDS011;44160;49.080;19.302;2023-10-13T08:54:13;14.32;;;9.40;;
58354;SDS011;44160;49.080;19.302;2023-10-13T08:56:59;14.18;;;8.25;;
58354;SDS011;44160;49.080;19.302;2023-10-13T08:59:47;13.05;;;8.50;;
58354;SDS011;44160;49.080;19.302;2023-10-13T09:02:23;18.60;;;8.68;;
58354;SDS011;44160;49.080;19.302;2023-10-13T09:05:25;13.43;;;6.90;;
58354;SDS011;44160;49.080;19.302;2023-10-13T09:08:25;11.48;;;6.63;;
58354;SDS011;44160;49.080;19.302;2023-10-13T09:11:01;11.93;;;6.80;;
58354;SDS011;44160;49.080;19.302;2023-10-13T09:13:40;8.52;;;6.35;;
58354;SDS011;44160;49.080;19.302;2023-10-13T09:16:19;9.50;;;6.57;;
58354;SDS011;44160;49.080;19.302;2023-10-13T09:19:07;11.35;;;7.07;;
58354;SDS011;44160;49.080;19.302;2023-10-13T09:21:39;9.77;;;5.63;;
58354;SDS011;44160;49.080;19.302;2023-10-13T09:24:07;9.98;;;5.47;;
58354;SDS011;44160;49.080;19.302;2023-10-13T09:26:52;9.07;;;5.05;;
58354;SDS011;44160;49.080;19.302;2023-10-13T09:29:21;9.60;;;5.57;;
58354;SDS011;44160;49.080;19.302;2023-10-13T09:32:06;9.48;;;5.85;;
58354;SDS011;44160;49.080;19.302;2023-10-13T09:34:37;7.30;;;5.55;;
58354;SDS011;44160;49.080;19.302;2023-10-13T09:37:08;11.02;;;5.78;;
58354;SDS011;44160;49.080;19.302;2023-10-13T09:39:36;10.48;;;5.63;;
58354;SDS011;44160;49.080;19.302;2023-10-13T09:42:10;10.93;;;5.85;;
58354;SDS011;44160;49.080;19.302;2023-10-13T09:44:37;13.48;;;5.75;;
58354;SDS011;44160;49.080;19.302;2023-10-13T09:47:05;13.82;;;6.40;;
58354;SDS011;44160;49.080;19.302;2023-10-13T09:49:42;9.32;;;6.05;;
58354;SDS011;44160;49.080;19.302;2023-10-13T09:52:15;9.88;;;5.13;;
58354;SDS011;44160;49.080;19.302;2023-10-13T09:55:33;8.35;;;5.55;;
58354;SDS011;44160;49.080;19.302;2023-10-13T09:57:43;10.82;;;5.75;;
58354;SDS011;44160;49.080;19.302;2023-10-13T10:00:14;13.13;;;5.70;;
58354;SDS011;44160;49.080;19.302;2023-10-13T10:03:01;10.88;;;5.68;;
58354;SDS011;44160;49.080;19.302;2023-10-13T10:05:41;8.02;;;5.20;;
58354;SDS011;44160;49.080;19.302;2023-10-13T10:08:22;13.82;;;5.03;;
58354;SDS011;44160;49.080;19.302;2023-10-13T10:10:59;12.45;;;5.55;;
58354;SDS011;44160;49.080;19.302;2023-10-13T10:13:43;8.85;;;4.90;;
58354;SDS011;44160;49.080;19.302;2023-10-13T10:16:19;11.10;;;5.85;;
58354;SDS011;44160;49.080;19.302;2023-10-13T10:18:58;13.88;;;6.18;;
58354;SDS011;44160;49.080;19.302;2023-10-13T10:21:32;14.40;;;5.32;;
58354;SDS011;44160;49.080;19.302;2023-10-13T10:23:58;11.60;;;5.25;;
58354;SDS011;44160;49.080;19.302;2023-10-13T10:26:27;9.32;;;5.05;;
58354;SDS011;44160;49.080;19.302;2023-10-13T10:28:54;13.68;;;5.30;;
58354;SDS011;44160;49.080;19.302;2023-10-13T10:31:21;13.45;;;4.82;;
58354;SDS011;44160;49.080;19.302;2023-10-13T10:34:10;9.43;;;5.32;;
58354;SDS011;44160;49.080;19.302;2023-10-13T10:36:36;10.32;;;5.38;;
58354;SDS011;44160;49.080;19.302;2023-10-13T10:39:08;7.80;;;4.57;;
58354;SDS011;44160;49.080;19.302;2023-10-13T10:41:36;9.95;;;4.95;;
58354;SDS011;44160;49.080;19.302;2023-10-13T10:44:11;10.10;;;4.80;;
58354;SDS011;44160;49.080;19.302;2023-10-13T10:46:56;10.13;;;5.07;;
58354;SDS011;44160;49.080;19.302;2023-10-13T10:49:26;12.05;;;5.65;;
58354;SDS011;44160;49.080;19.302;2023-10-13T10:52:01;11.55;;;4.90;;
58354;SDS011;44160;49.080;19.302;2023-10-13T10:54:29;7.43;;;4.25;;
58354;SDS011;44160;49.080;19.302;2023-10-13T10:56:57;8.10;;;5.15;;
58354;SDS011;44160;49.080;19.302;2023-10-13T10:59:36;8.90;;;5.72;;
58354;SDS011;44160;49.080;19.302;2023-10-13T11:02:06;13.75;;;5.85;;
58354;SDS011;44160;49.080;19.302;2023-10-13T11:04:34;10.23;;;4.47;;
58354;SDS011;44160;49.080;19.302;2023-10-13T11:07:05;9.27;;;5.15;;
58354;SDS011;44160;49.080;19.302;2023-10-13T11:09:34;14.93;;;5.38;;
58354;SDS011;44160;49.080;19.302;2023-10-13T11:14:39;7.97;;;4.35;;
58354;SDS011;44160;49.080;19.302;2023-10-13T11:17:05;8.30;;;4.88;;
58354;SDS011;44160;49.080;19.302;2023-10-13T11:19:44;7.38;;;4.72;;
58354;SDS011;44160;49.080;19.302;2023-10-13T11:22:14;7.97;;;5.28;;
58354;SDS011;44160;49.080;19.302;2023-10-13T11:25:25;13.40;;;5.43;;
58354;SDS011;44160;49.080;19.302;2023-10-13T11:28:21;8.85;;;5.20;;
58354;SDS011;44160;49.080;19.302;2023-10-13T11:30:52;6.50;;;4.00;;
58354;SDS011;44160;49.080;19.302;2023-10-13T11:33:21;7.43;;;4.22;;
58354;SDS011;44160;49.080;19.302;2023-10-13T11:35:53;7.28;;;4.00;;
58354;SDS011;44160;49.080;19.302;2023-10-13T11:40:52;6.88;;;4.32;;
58354;SDS011;44160;49.080;19.302;2023-10-13T11:46:30;8.40;;;3.75;;
58354;SDS011;44160;49.080;19.302;2023-10-13T11:48:59;9.30;;;4.47;;
58354;SDS011;44160;49.080;19.302;2023-10-13T11:53:57;7.93;;;3.78;;
58354;SDS011;44160;49.080;19.302;2023-10-13T11:56:23;11.43;;;5.05;;
58354;SDS011;44160;49.080;19.302;2023-10-13T11:58:50;7.05;;;3.72;;
58354;SDS011;44160;49.080;19.302;2023-10-13T12:01:16;7.95;;;3.85;;
58354;SDS011;44160;49.080;19.302;2023-10-13T12:03:43;8.07;;;4.20;;
58354;SDS011;44160;49.080;19.302;2023-10-13T12:06:28;8.02;;;3.88;;
58354;SDS011;44160;49.080;19.302;2023-10-13T12:09:04;6.90;;;3.63;;
58354;SDS011;44160;49.080;19.302;2023-10-13T12:11:42;7.10;;;4.32;;
58354;SDS011;44160;49.080;19.302;2023-10-13T12:14:10;6.80;;;3.03;;
58354;SDS011;44160;49.080;19.302;2023-10-13T12:16:46;3.72;;;2.47;;
58354;SDS011;44160;49.080;19.302;2023-10-13T12:19:24;6.45;;;3.67;;
58354;SDS011;44160;49.080;19.302;2023-10-13T12:21:51;5.90;;;3.47;;
58354;SDS011;44160;49.080;19.302;2023-10-13T12:24:24;8.15;;;3.08;;
58354;SDS011;44160;49.080;19.302;2023-10-13T12:27:08;4.63;;;2.58;;
58354;SDS011;44160;49.080;19.302;2023-10-13T12:30:00;6.00;;;3.13;;
58354;SDS011;44160;49.080;19.302;2023-10-13T12:32:35;8.85;;;3.35;;
58354;SDS011;44160;49.080;19.302;2023-10-13T12:35:02;9.10;;;3.05;;
58354;SDS011;44160;49.080;19.302;2023-10-13T12:37:28;6.93;;;3.33;;
58354;SDS011;44160;49.080;19.302;2023-10-13T12:42:54;8.10;;;5.30;;
58354;SDS011;44160;49.080;19.302;2023-10-13T12:45:39;7.63;;;2.95;;
58354;SDS011;44160;49.080;19.302;2023-10-13T12:48:24;3.80;;;2.35;;
58354;SDS011;44160;49.080;19.302;2023-10-13T12:51:08;4.80;;;2.22;;
58354;SDS011;44160;49.080;19.302;2023-10-13T12:53:53;4.88;;;2.10;;
58354;SDS011;44160;49.080;19.302;2023-10-13T12:56:20;3.13;;;2.20;;
58354;SDS011;44160;49.080;19.302;2023-10-13T12:58:53;8.05;;;1.92;;
58354;SDS011;44160;49.080;19.302;2023-10-13T13:01:23;3.47;;;1.83;;
58354;SDS011;44160;49.080;19.302;2023-10-13T13:03:50;6.18;;;2.30;;
58354;SDS011;44160;49.080;19.302;2023-10-13T13:06:23;4.57;;;2.60;;
58354;SDS011;44160;49.080;19.302;2023-10-13T13:08:55;7.07;;;2.42;;
58354;SDS011;44160;49.080;19.302;2023-10-13T13:11:22;4.10;;;2.20;;
58354;SDS011;44160;49.080;19.302;2023-10-13T13:13:48;4.70;;;1.92;;
58354;SDS011;44160;49.080;19.302;2023-10-13T13:16:15;6.47;;;2.55;;
58354;SDS011;44160;49.080;19.302;2023-10-13T13:18:44;3.75;;;1.83;;
58354;SDS011;44160;49.080;19.302;2023-10-13T13:21:10;5.15;;;2.47;;
58354;SDS011;44160;49.080;19.302;2023-10-13T13:23:46;6.60;;;2.17;;
58354;SDS011;44160;49.080;19.302;2023-10-13T13:26:12;4.78;;;2.00;;
58354;SDS011;44160;49.080;19.302;2023-10-13T13:28:49;4.93;;;2.20;;
58354;SDS011;44160;49.080;19.302;2023-10-13T13:31:16;5.30;;;2.55;;
58354;SDS011;44160;49.080;19.302;2023-10-13T13:33:42;7.03;;;2.95;;
58354;SDS011;44160;49.080;19.302;2023-10-13T13:36:11;4.90;;;2.35;;
58354;SDS011;44160;49.080;19.302;2023-10-13T13:38:41;6.10;;;2.40;;
58354;SDS011;44160;49.080;19.302;2023-10-13T13:41:11;5.13;;;2.70;;
58354;SDS011;44160;49.080;19.302;2023-10-13T13:43:41;7.17;;;2.57;;
58354;SDS011;44160;49.080;19.302;2023-10-13T13:46:19;6.00;;;2.60;;
58354;SDS011;44160;49.080;19.302;2023-10-13T13:48:50;6.35;;;2.63;;
58354;SDS011;44160;49.080;19.302;2023-10-13T13:51:16;6.22;;;2.55;;
58354;SDS011;44160;49.080;19.302;2023-10-13T13:53:51;4.72;;;2.30;;
58354;SDS011;44160;49.080;19.302;2023-10-13T13:56:18;5.25;;;2.63;;
58354;SDS011;44160;49.080;19.302;2023-10-13T13:58:48;5.45;;;2.50;;
58354;SDS011;44160;49.080;19.302;2023-10-13T14:01:18;6.03;;;2.90;;
58354;SDS011;44160;49.080;19.302;2023-10-13T14:03:46;5.82;;;2.40;;
58354;SDS011;44160;49.080;19.302;2023-10-13T14:06:15;6.80;;;2.20;;
58354;SDS011;44160;49.080;19.302;2023-10-13T14:08:54;4.53;;;2.40;;
58354;SDS011;44160;49.080;19.302;2023-10-13T14:11:21;10.93;;;2.38;;
58354;SDS011;44160;49.080;19.302;2023-10-13T14:14:08;6.60;;;2.67;;
58354;SDS011;44160;49.080;19.302;2023-10-13T14:16:41;6.47;;;2.78;;
58354;SDS011;44160;49.080;19.302;2023-10-13T14:19:12;6.68;;;2.85;;
58354;SDS011;44160;49.080;19.302;2023-10-13T14:21:45;8.68;;;3.17;;
58354;SDS011;44160;49.080;19.302;2023-10-13T14:24:18;5.25;;;2.55;;
58354;SDS011;44160;49.080;19.302;2023-10-13T14:26:52;8.35;;;3.05;;
58354;SDS011;44160;49.080;19.302;2023-10-13T14:29:18;6.63;;;4.50;;
58354;SDS011;44160;49.080;19.302;2023-10-13T14:31:44;11.13;;;3.53;;
58354;SDS011;44160;49.080;19.302;2023-10-13T14:34:13;7.53;;;2.50;;
58354;SDS011;44160;49.080;19.302;2023-10-13T14:36:40;4.47;;;2.72;;
58354;SDS011;44160;49.080;19.302;2023-10-13T14:39:06;5.85;;;2.53;;
58354;SDS011;44160;49.080;19.302;2023-10-13T14:41:38;5.90;;;3.15;;
58354;SDS011;44160;49.080;19.302;2023-10-13T14:44:05;7.43;;;3.25;;
58354;SDS011;44160;49.080;19.302;2023-10-13T14:46:31;6.90;;;2.92;;
58354;SDS011;44160;49.080;19.302;2023-10-13T14:49:01;7.03;;;2.72;;
58354;SDS011;44160;49.080;19.302;2023-10-13T14:51:27;4.80;;;2.95;;
58354;SDS011;44160;49.080;19.302;2023-10-13T14:53:54;5.93;;;2.85;;
58354;SDS011;44160;49.080;19.302;2023-10-13T14:56:21;5.78;;;2.95;;
58354;SDS011;44160;49.080;19.302;2023-10-13T14:58:51;4.50;;;2.95;;
58354;SDS011;44160;49.080;19.302;2023-10-13T15:01:18;5.93;;;2.75;;
58354;SDS011;44160;49.080;19.302;2023-10-13T15:03:45;6.68;;;2.72;;
58354;SDS011;44160;49.080;19.302;2023-10-13T15:06:15;7.03;;;3.35;;
58354;SDS011;44160;49.080;19.302;2023-10-13T15:08:46;6.40;;;3.08;;
58354;SDS011;44160;49.080;19.302;2023-10-13T15:11:15;7.25;;;3.17;;
58354;SDS011;44160;49.080;19.302;2023-10-13T15:14:25;6.82;;;3.35;;
58354;SDS011;44160;49.080;19.302;2023-10-13T15:16:32;6.55;;;3.70;;
58354;SDS011;44160;49.080;19.302;2023-10-13T15:18:59;8.07;;;3.90;;
58354;SDS011;44160;49.080;19.302;2023-10-13T15:21:28;8.90;;;3.28;;
58354;SDS011;44160;49.080;19.302;2023-10-13T15:24:01;8.68;;;3.08;;
58354;SDS011;44160;49.080;19.302;2023-10-13T15:26:41;6.38;;;3.17;;
58354;SDS011;44160;49.080;19.302;2023-10-13T15:29:12;6.00;;;3.38;;
58354;SDS011;44160;49.080;19.302;2023-10-13T15:31:41;7.35;;;3.88;;
58354;SDS011;44160;49.080;19.302;2023-10-13T15:34:11;6.30;;;3.40;;